sensor_id;sensor_type;location;lat;lon;timestamp;temperature;humidity
16871;DHT22;8552;48.120;-1.456;2023-04-07T00:01:21;4.00;99.90
16871;DHT22;8552;48.120;-1.456;2023-04-07T00:03:46;4.00;99.90
16871;DHT22;8552;48.120;-1.456;2023-04-07T00:06:12;3.90;99.90
16871;DHT22;8552;48.120;-1.456;2023-04-07T00:08:38;3.80;99.90
16871;DHT22;8552;48.120;-1.456;2023-04-07T00:11:04;3.80;99.90
16871;DHT22;8552;48.120;-1.456;2023-04-07T00:13:30;3.80;99.90
16871;DHT22;8552;48.120;-1.456;2023-04-07T00:15:55;3.80;99.90
16871;DHT22;8552;48.120;-1.456;2023-04-07T00:18:21;3.70;99.90
16871;DHT22;8552;48.120;-1.456;2023-04-07T00:20:47;3.70;99.90
16871;DHT22;8552;48.120;-1.456;2023-04-07T00:23:13;3.60;99.90
16871;DHT22;8552;48.120;-1.456;2023-04-07T00:25:38;3.60;99.90
16871;DHT22;8552;48.120;-1.456;2023-04-07T00:28:04;3.50;99.90
16871;DHT22;8552;48.120;-1.456;2023-04-07T00:30:30;3.50;99.90
16871;DHT22;8552;48.120;-1.456;2023-04-07T00:32:56;3.50;99.90
16871;DHT22;8552;48.120;-1.456;2023-04-07T00:35:21;3.50;99.90
16871;DHT22;8552;48.120;-1.456;2023-04-07T00:37:47;3.50;99.90
16871;DHT22;8552;48.120;-1.456;2023-04-07T00:40:13;3.40;99.90
16871;DHT22;8552;48.120;-1.456;2023-04-07T00:42:38;3.40;99.90
16871;DHT22;8552;48.120;-1.456;2023-04-07T00:45:04;3.40;99.90
16871;DHT22;8552;48.120;-1.456;2023-04-07T00:47:30;3.40;99.90
16871;DHT22;8552;48.120;-1.456;2023-04-07T00:49:56;3.30;99.90
16871;DHT22;8552;48.120;-1.456;2023-04-07T00:52:23;3.30;99.90
16871;DHT22;8552;48.120;-1.456;2023-04-07T00:54:57;3.30;99.90
16871;DHT22;8552;48.120;-1.456;2023-04-07T00:57:23;3.30;99.90
16871;DHT22;8552;48.120;-1.456;2023-04-07T00:59:53;3.20;99.90
16871;DHT22;8552;48.120;-1.456;2023-04-07T01:04:58;3.10;99.90
16871;DHT22;8552;48.120;-1.456;2023-04-07T01:07:34;3.10;99.90
16871;DHT22;8552;48.120;-1.456;2023-04-07T01:10:05;3.00;99.90
16871;DHT22;8552;48.120;-1.456;2023-04-07T01:13:08;3.00;99.90
16871;DHT22;8552;48.120;-1.456;2023-04-07T01:15:38;2.90;99.90
16871;DHT22;8552;48.120;-1.456;2023-04-07T01:18:14;2.90;99.90
16871;DHT22;8552;48.120;-1.456;2023-04-07T01:20:43;2.90;99.90
16871;DHT22;8552;48.120;-1.456;2023-04-07T01:23:16;2.90;99.90
16871;DHT22;8552;48.120;-1.456;2023-04-07T01:25:53;2.90;99.90
16871;DHT22;8552;48.120;-1.456;2023-04-07T01:31:25;2.90;99.90
16871;DHT22;8552;48.120;-1.456;2023-04-07T01:33:51;2.80;99.90
16871;DHT22;8552;48.120;-1.456;2023-04-07T01:36:20;2.80;99.90
16871;DHT22;8552;48.120;-1.456;2023-04-07T01:38:48;2.80;99.90
16871;DHT22;8552;48.120;-1.456;2023-04-07T01:41:15;2.80;99.90
16871;DHT22;8552;48.120;-1.456;2023-04-07T01:43:42;2.70;99.90
16871;DHT22;8552;48.120;-1.456;2023-04-07T01:46:08;2.70;99.90
16871;DHT22;8552;48.120;-1.456;2023-04-07T01:48:34;2.70;99.90
16871;DHT22;8552;48.120;-1.456;2023-04-07T01:51:03;2.60;99.90
16871;DHT22;8552;48.120;-1.456;2023-04-07T01:53:29;2.60;99.90
16871;DHT22;8552;48.120;-1.456;2023-04-07T01:55:55;2.60;99.90
16871;DHT22;8552;48.120;-1.456;2023-04-07T01:58:21;2.50;99.90
16871;DHT22;8552;48.120;-1.456;2023-04-07T02:00:47;2.50;99.90
16871;DHT22;8552;48.120;-1.456;2023-04-07T02:04:03;2.60;99.90
16871;DHT22;8552;48.120;-1.456;2023-04-07T02:06:05;2.60;99.90
16871;DHT22;8552;48.120;-1.456;2023-04-07T02:08:32;2.50;99.90
16871;DHT22;8552;48.120;-1.456;2023-04-07T02:11:01;2.50;99.90
16871;DHT22;8552;48.120;-1.456;2023-04-07T02:13:28;2.50;99.90
16871;DHT22;8552;48.120;-1.456;2023-04-07T02:15:56;2.50;99.90
16871;DHT22;8552;48.120;-1.456;2023-04-07T02:18:22;2.50;99.90
16871;DHT22;8552;48.120;-1.456;2023-04-07T02:20:51;2.50;99.90
16871;DHT22;8552;48.120;-1.456;2023-04-07T02:23:17;2.40;99.90
16871;DHT22;8552;48.120;-1.456;2023-04-07T02:25:43;2.40;99.90
16871;DHT22;8552;48.120;-1.456;2023-04-07T02:28:08;2.30;99.90
16871;DHT22;8552;48.120;-1.456;2023-04-07T02:30:34;2.20;99.90
16871;DHT22;8552;48.120;-1.456;2023-04-07T02:33:00;2.20;99.90
16871;DHT22;8552;48.120;-1.456;2023-04-07T02:35:26;2.20;99.90
16871;DHT22;8552;48.120;-1.456;2023-04-07T02:37:52;2.10;99.90
16871;DHT22;8552;48.120;-1.456;2023-04-07T02:40:18;2.10;99.90
16871;DHT22;8552;48.120;-1.456;2023-04-07T02:42:44;2.10;99.90
16871;DHT22;8552;48.120;-1.456;2023-04-07T02:45:10;2.10;99.90
16871;DHT22;8552;48.120;-1.456;2023-04-07T02:47:37;2.10;99.90
16871;DHT22;8552;48.120;-1.456;2023-04-07T02:50:03;2.10;99.90
16871;DHT22;8552;48.120;-1.456;2023-04-07T02:52:29;2.10;99.90
16871;DHT22;8552;48.120;-1.456;2023-04-07T02:54:54;2.20;99.90
16871;DHT22;8552;48.120;-1.456;2023-04-07T02:57:20;2.10;99.90
16871;DHT22;8552;48.120;-1.456;2023-04-07T02:59:46;2.00;99.90
16871;DHT22;8552;48.120;-1.456;2023-04-07T03:02:11;2.10;99.90
16871;DHT22;8552;48.120;-1.456;2023-04-07T03:04:37;2.10;99.90
16871;DHT22;8552;48.120;-1.456;2023-04-07T03:07:03;2.10;99.90
16871;DHT22;8552;48.120;-1.456;2023-04-07T03:09:29;2.10;99.90
16871;DHT22;8552;48.120;-1.456;2023-04-07T03:11:55;2.10;99.90
16871;DHT22;8552;48.120;-1.456;2023-04-07T03:14:21;2.10;99.90
16871;DHT22;8552;48.120;-1.456;2023-04-07T03:16:46;2.10;99.90
16871;DHT22;8552;48.120;-1.456;2023-04-07T03:19:12;2.10;99.90
16871;DHT22;8552;48.120;-1.456;2023-04-07T03:21:38;2.00;99.90
16871;DHT22;8552;48.120;-1.456;2023-04-07T03:24:05;2.00;99.90
16871;DHT22;8552;48.120;-1.456;2023-04-07T03:26:31;2.00;99.90
16871;DHT22;8552;48.120;-1.456;2023-04-07T03:28:57;2.00;99.90
16871;DHT22;8552;48.120;-1.456;2023-04-07T03:31:23;2.00;99.90
16871;DHT22;8552;48.120;-1.456;2023-04-07T03:33:49;2.00;99.90
16871;DHT22;8552;48.120;-1.456;2023-04-07T03:36:15;2.00;99.90
16871;DHT22;8552;48.120;-1.456;2023-04-07T03:38:42;2.00;99.90
16871;DHT22;8552;48.120;-1.456;2023-04-07T03:41:08;2.00;99.90
16871;DHT22;8552;48.120;-1.456;2023-04-07T03:43:33;2.00;99.90
16871;DHT22;8552;48.120;-1.456;2023-04-07T03:45:59;2.00;99.90
16871;DHT22;8552;48.120;-1.456;2023-04-07T03:48:25;2.00;99.90
16871;DHT22;8552;48.120;-1.456;2023-04-07T03:50:50;2.00;99.90
16871;DHT22;8552;48.120;-1.456;2023-04-07T03:53:16;2.00;99.90
16871;DHT22;8552;48.120;-1.456;2023-04-07T03:55:44;2.00;99.90
16871;DHT22;8552;48.120;-1.456;2023-04-07T03:58:09;2.00;99.90
16871;DHT22;8552;48.120;-1.456;2023-04-07T04:00:35;2.00;99.90
16871;DHT22;8552;48.120;-1.456;2023-04-07T04:03:02;2.00;99.90
16871;DHT22;8552;48.120;-1.456;2023-04-07T04:05:27;2.00;99.90
16871;DHT22;8552;48.120;-1.456;2023-04-07T04:07:53;2.00;99.90
16871;DHT22;8552;48.120;-1.456;2023-04-07T04:10:19;2.00;99.90
16871;DHT22;8552;48.120;-1.456;2023-04-07T04:12:46;2.00;99.90
16871;DHT22;8552;48.120;-1.456;2023-04-07T04:15:12;2.00;99.90
16871;DHT22;8552;48.120;-1.456;2023-04-07T04:17:38;1.90;99.90
16871;DHT22;8552;48.120;-1.456;2023-04-07T04:20:04;1.90;99.90
16871;DHT22;8552;48.120;-1.456;2023-04-07T04:22:30;1.90;99.90
16871;DHT22;8552;48.120;-1.456;2023-04-07T04:24:55;2.00;99.90
16871;DHT22;8552;48.120;-1.456;2023-04-07T04:27:21;1.90;99.90
16871;DHT22;8552;48.120;-1.456;2023-04-07T04:29:47;2.00;99.90
16871;DHT22;8552;48.120;-1.456;2023-04-07T04:32:13;2.00;99.90
16871;DHT22;8552;48.120;-1.456;2023-04-07T04:34:39;2.10;99.90
16871;DHT22;8552;48.120;-1.456;2023-04-07T04:37:06;2.10;99.90
16871;DHT22;8552;48.120;-1.456;2023-04-07T04:39:32;2.20;99.90
16871;DHT22;8552;48.120;-1.456;2023-04-07T04:41:58;2.30;99.90
16871;DHT22;8552;48.120;-1.456;2023-04-07T04:44:24;2.40;99.90
16871;DHT22;8552;48.120;-1.456;2023-04-07T04:46:50;2.50;99.90
16871;DHT22;8552;48.120;-1.456;2023-04-07T04:49:16;2.60;99.90
16871;DHT22;8552;48.120;-1.456;2023-04-07T04:51:43;2.70;99.90
16871;DHT22;8552;48.120;-1.456;2023-04-07T04:54:09;2.70;99.90
16871;DHT22;8552;48.120;-1.456;2023-04-07T04:56:35;2.80;99.90
16871;DHT22;8552;48.120;-1.456;2023-04-07T04:59:02;2.80;99.90
16871;DHT22;8552;48.120;-1.456;2023-04-07T05:01:27;2.90;99.90
16871;DHT22;8552;48.120;-1.456;2023-04-07T05:03:53;3.00;99.90
16871;DHT22;8552;48.120;-1.456;2023-04-07T05:06:19;3.00;99.90
16871;DHT22;8552;48.120;-1.456;2023-04-07T05:08:45;3.10;99.90
16871;DHT22;8552;48.120;-1.456;2023-04-07T05:11:11;3.20;99.90
16871;DHT22;8552;48.120;-1.456;2023-04-07T05:13:37;3.20;99.90
16871;DHT22;8552;48.120;-1.456;2023-04-07T05:16:03;3.20;99.90
16871;DHT22;8552;48.120;-1.456;2023-04-07T05:18:29;3.30;99.90
16871;DHT22;8552;48.120;-1.456;2023-04-07T05:20:55;3.30;99.90
16871;DHT22;8552;48.120;-1.456;2023-04-07T05:23:21;3.30;99.90
16871;DHT22;8552;48.120;-1.456;2023-04-07T05:25:46;3.40;99.90
16871;DHT22;8552;48.120;-1.456;2023-04-07T05:28:12;3.40;99.90
16871;DHT22;8552;48.120;-1.456;2023-04-07T05:30:38;3.50;99.90
16871;DHT22;8552;48.120;-1.456;2023-04-07T05:33:03;3.60;99.90
16871;DHT22;8552;48.120;-1.456;2023-04-07T05:35:29;3.60;99.90
16871;DHT22;8552;48.120;-1.456;2023-04-07T05:37:55;3.70;99.90
16871;DHT22;8552;48.120;-1.456;2023-04-07T05:40:21;3.70;99.90
16871;DHT22;8552;48.120;-1.456;2023-04-07T05:42:47;3.70;99.90
16871;DHT22;8552;48.120;-1.456;2023-04-07T05:45:13;3.80;99.90
16871;DHT22;8552;48.120;-1.456;2023-04-07T05:47:38;3.80;99.90
16871;DHT22;8552;48.120;-1.456;2023-04-07T05:50:05;3.90;99.90
16871;DHT22;8552;48.120;-1.456;2023-04-07T05:52:31;3.90;99.90
16871;DHT22;8552;48.120;-1.456;2023-04-07T05:54:57;4.00;99.90
16871;DHT22;8552;48.120;-1.456;2023-04-07T05:57:22;4.00;99.90
16871;DHT22;8552;48.120;-1.456;2023-04-07T05:59:48;4.10;99.90
16871;DHT22;8552;48.120;-1.456;2023-04-07T06:02:14;4.10;99.90
16871;DHT22;8552;48.120;-1.456;2023-04-07T06:04:40;4.20;99.90
16871;DHT22;8552;48.120;-1.456;2023-04-07T06:07:06;4.20;99.90
16871;DHT22;8552;48.120;-1.456;2023-04-07T06:09:31;4.30;99.90
16871;DHT22;8552;48.120;-1.456;2023-04-07T06:11:57;4.30;99.90
16871;DHT22;8552;48.120;-1.456;2023-04-07T06:14:24;4.40;99.90
16871;DHT22;8552;48.120;-1.456;2023-04-07T06:16:50;4.40;99.90
16871;DHT22;8552;48.120;-1.456;2023-04-07T06:19:16;4.50;99.90
16871;DHT22;8552;48.120;-1.456;2023-04-07T06:21:41;4.60;99.90
16871;DHT22;8552;48.120;-1.456;2023-04-07T06:24:07;4.60;99.90
16871;DHT22;8552;48.120;-1.456;2023-04-07T06:26:34;4.70;99.90
16871;DHT22;8552;48.120;-1.456;2023-04-07T06:29:00;4.70;99.90
16871;DHT22;8552;48.120;-1.456;2023-04-07T06:31:27;4.80;99.90
16871;DHT22;8552;48.120;-1.456;2023-04-07T06:33:53;4.90;99.90
16871;DHT22;8552;48.120;-1.456;2023-04-07T06:36:19;5.00;99.90
16871;DHT22;8552;48.120;-1.456;2023-04-07T06:38:45;5.00;99.90
16871;DHT22;8552;48.120;-1.456;2023-04-07T06:41:11;5.10;99.90
16871;DHT22;8552;48.120;-1.456;2023-04-07T06:43:42;5.20;99.90
16871;DHT22;8552;48.120;-1.456;2023-04-07T06:46:08;5.20;99.90
16871;DHT22;8552;48.120;-1.456;2023-04-07T06:48:34;5.20;99.90
16871;DHT22;8552;48.120;-1.456;2023-04-07T06:51:00;5.10;99.90
16871;DHT22;8552;48.120;-1.456;2023-04-07T06:53:26;5.20;99.90
16871;DHT22;8552;48.120;-1.456;2023-04-07T06:56:11;5.30;99.90
16871;DHT22;8552;48.120;-1.456;2023-04-07T06:58:40;5.40;99.90
16871;DHT22;8552;48.120;-1.456;2023-04-07T07:01:08;5.50;99.90
16871;DHT22;8552;48.120;-1.456;2023-04-07T07:03:44;5.50;99.90
16871;DHT22;8552;48.120;-1.456;2023-04-07T07:06:14;5.70;99.90
16871;DHT22;8552;48.120;-1.456;2023-04-07T07:08:47;5.80;99.90
16871;DHT22;8552;48.120;-1.456;2023-04-07T07:11:22;5.90;99.90
16871;DHT22;8552;48.120;-1.456;2023-04-07T07:13:54;5.90;99.90
16871;DHT22;8552;48.120;-1.456;2023-04-07T07:16:26;5.90;99.90
16871;DHT22;8552;48.120;-1.456;2023-04-07T07:18:55;6.10;99.90
16871;DHT22;8552;48.120;-1.456;2023-04-07T07:21:23;6.10;99.90
16871;DHT22;8552;48.120;-1.456;2023-04-07T07:23:52;6.20;99.90
16871;DHT22;8552;48.120;-1.456;2023-04-07T07:26:20;6.40;99.90
16871;DHT22;8552;48.120;-1.456;2023-04-07T07:28:50;6.50;99.90
16871;DHT22;8552;48.120;-1.456;2023-04-07T07:31:19;6.60;99.90
16871;DHT22;8552;48.120;-1.456;2023-04-07T07:33:48;6.60;99.90
16871;DHT22;8552;48.120;-1.456;2023-04-07T07:36:18;6.60;99.90
16871;DHT22;8552;48.120;-1.456;2023-04-07T07:38:49;6.70;99.90
16871;DHT22;8552;48.120;-1.456;2023-04-07T07:41:18;6.80;99.90
16871;DHT22;8552;48.120;-1.456;2023-04-07T07:43:47;6.70;99.90
16871;DHT22;8552;48.120;-1.456;2023-04-07T07:46:18;6.90;99.90
16871;DHT22;8552;48.120;-1.456;2023-04-07T07:48:48;7.10;99.90
16871;DHT22;8552;48.120;-1.456;2023-04-07T07:51:18;7.30;99.90
16871;DHT22;8552;48.120;-1.456;2023-04-07T07:53:46;7.30;99.90
16871;DHT22;8552;48.120;-1.456;2023-04-07T07:56:13;7.40;99.90
16871;DHT22;8552;48.120;-1.456;2023-04-07T07:58:42;7.50;99.90
16871;DHT22;8552;48.120;-1.456;2023-04-07T08:01:14;7.60;99.90
16871;DHT22;8552;48.120;-1.456;2023-04-07T08:03:43;7.60;99.90
16871;DHT22;8552;48.120;-1.456;2023-04-07T08:06:12;7.60;99.90
16871;DHT22;8552;48.120;-1.456;2023-04-07T08:08:41;7.70;99.90
16871;DHT22;8552;48.120;-1.456;2023-04-07T08:11:15;7.70;99.90
16871;DHT22;8552;48.120;-1.456;2023-04-07T08:13:44;7.80;99.90
16871;DHT22;8552;48.120;-1.456;2023-04-07T08:16:17;8.10;99.90
16871;DHT22;8552;48.120;-1.456;2023-04-07T08:18:49;8.20;99.90
16871;DHT22;8552;48.120;-1.456;2023-04-07T08:21:17;8.40;99.90
16871;DHT22;8552;48.120;-1.456;2023-04-07T08:23:53;8.60;99.90
16871;DHT22;8552;48.120;-1.456;2023-04-07T08:26:27;8.50;99.90
16871;DHT22;8552;48.120;-1.456;2023-04-07T08:28:55;8.40;99.90
16871;DHT22;8552;48.120;-1.456;2023-04-07T08:31:25;8.70;99.90
16871;DHT22;8552;48.120;-1.456;2023-04-07T08:34:07;8.80;99.90
16871;DHT22;8552;48.120;-1.456;2023-04-07T08:36:40;8.70;99.90
16871;DHT22;8552;48.120;-1.456;2023-04-07T08:39:10;8.70;99.90
16871;DHT22;8552;48.120;-1.456;2023-04-07T08:41:45;8.60;99.90
16871;DHT22;8552;48.120;-1.456;2023-04-07T08:44:15;8.80;99.90
16871;DHT22;8552;48.120;-1.456;2023-04-07T08:46:49;8.60;99.90
16871;DHT22;8552;48.120;-1.456;2023-04-07T08:49:24;8.70;99.90
16871;DHT22;8552;48.120;-1.456;2023-04-07T08:52:07;9.10;99.90
16871;DHT22;8552;48.120;-1.456;2023-04-07T08:54:38;8.90;99.90
16871;DHT22;8552;48.120;-1.456;2023-04-07T08:57:07;9.20;99.90
16871;DHT22;8552;48.120;-1.456;2023-04-07T08:59:38;9.40;99.90
16871;DHT22;8552;48.120;-1.456;2023-04-07T09:02:08;9.70;99.90
16871;DHT22;8552;48.120;-1.456;2023-04-07T09:04:37;9.90;99.90
16871;DHT22;8552;48.120;-1.456;2023-04-07T09:07:06;9.80;99.90
16871;DHT22;8552;48.120;-1.456;2023-04-07T09:09:34;9.90;99.90
16871;DHT22;8552;48.120;-1.456;2023-04-07T09:12:03;10.10;99.90
16871;DHT22;8552;48.120;-1.456;2023-04-07T09:14:31;10.30;99.90
16871;DHT22;8552;48.120;-1.456;2023-04-07T09:16:59;10.50;99.90
16871;DHT22;8552;48.120;-1.456;2023-04-07T09:19:26;10.50;99.90
16871;DHT22;8552;48.120;-1.456;2023-04-07T09:21:54;10.60;99.90
16871;DHT22;8552;48.120;-1.456;2023-04-07T09:24:29;10.90;99.90
16871;DHT22;8552;48.120;-1.456;2023-04-07T09:27:13;10.90;99.90
16871;DHT22;8552;48.120;-1.456;2023-04-07T09:29:43;10.90;99.90
16871;DHT22;8552;48.120;-1.456;2023-04-07T09:32:12;11.20;99.90
16871;DHT22;8552;48.120;-1.456;2023-04-07T09:34:58;11.40;99.90
16871;DHT22;8552;48.120;-1.456;2023-04-07T09:37:28;11.80;99.90
16871;DHT22;8552;48.120;-1.456;2023-04-07T09:39:54;11.70;99.90
16871;DHT22;8552;48.120;-1.456;2023-04-07T09:42:20;11.40;99.90
16871;DHT22;8552;48.120;-1.456;2023-04-07T09:44:47;11.70;99.90
16871;DHT22;8552;48.120;-1.456;2023-04-07T09:47:13;11.80;99.90
16871;DHT22;8552;48.120;-1.456;2023-04-07T09:49:50;12.10;99.90
16871;DHT22;8552;48.120;-1.456;2023-04-07T09:52:23;12.20;99.90
16871;DHT22;8552;48.120;-1.456;2023-04-07T09:54:52;12.00;99.90
16871;DHT22;8552;48.120;-1.456;2023-04-07T09:57:19;12.10;99.90
16871;DHT22;8552;48.120;-1.456;2023-04-07T09:59:46;12.20;99.90
16871;DHT22;8552;48.120;-1.456;2023-04-07T10:02:13;12.50;99.90
16871;DHT22;8552;48.120;-1.456;2023-04-07T10:04:39;12.90;99.90
16871;DHT22;8552;48.120;-1.456;2023-04-07T10:07:06;13.10;99.90
16871;DHT22;8552;48.120;-1.456;2023-04-07T10:09:34;13.30;99.90
16871;DHT22;8552;48.120;-1.456;2023-04-07T10:12:01;13.50;99.90
16871;DHT22;8552;48.120;-1.456;2023-04-07T10:14:38;14.00;99.90
16871;DHT22;8552;48.120;-1.456;2023-04-07T10:17:15;14.30;99.90
16871;DHT22;8552;48.120;-1.456;2023-04-07T10:19:45;14.50;99.90
16871;DHT22;8552;48.120;-1.456;2023-04-07T10:22:12;14.60;99.90
16871;DHT22;8552;48.120;-1.456;2023-04-07T10:28:21;14.70;99.90
16871;DHT22;8552;48.120;-1.456;2023-04-07T10:30:47;15.00;99.90
16871;DHT22;8552;48.120;-1.456;2023-04-07T10:33:13;15.10;99.90
16871;DHT22;8552;48.120;-1.456;2023-04-07T10:36:15;14.90;99.90
16871;DHT22;8552;48.120;-1.456;2023-04-07T10:38:41;15.00;99.90
16871;DHT22;8552;48.120;-1.456;2023-04-07T10:41:36;15.20;99.90
16871;DHT22;8552;48.120;-1.456;2023-04-07T10:44:51;14.80;99.90
16871;DHT22;8552;48.120;-1.456;2023-04-07T10:47:09;14.90;99.90
16871;DHT22;8552;48.120;-1.456;2023-04-07T10:49:36;15.10;99.90
16871;DHT22;8552;48.120;-1.456;2023-04-07T10:54:37;14.80;99.40
16871;DHT22;8552;48.120;-1.456;2023-04-07T10:59:29;15.20;99.50
16871;DHT22;8552;48.120;-1.456;2023-04-07T11:04:42;15.20;99.90
16871;DHT22;8552;48.120;-1.456;2023-04-07T11:07:09;14.40;97.70
16871;DHT22;8552;48.120;-1.456;2023-04-07T11:09:36;13.90;99.80
16871;DHT22;8552;48.120;-1.456;2023-04-07T11:12:02;14.20;99.90
16871;DHT22;8552;48.120;-1.456;2023-04-07T11:14:31;14.40;99.90
16871;DHT22;8552;48.120;-1.456;2023-04-07T11:16:58;14.50;99.00
16871;DHT22;8552;48.120;-1.456;2023-04-07T11:19:27;14.30;98.80
16871;DHT22;8552;48.120;-1.456;2023-04-07T11:22:12;14.90;99.90
16871;DHT22;8552;48.120;-1.456;2023-04-07T11:24:38;14.90;99.90
16871;DHT22;8552;48.120;-1.456;2023-04-07T11:27:04;14.60;96.70
16871;DHT22;8552;48.120;-1.456;2023-04-07T11:29:31;14.20;97.00
16871;DHT22;8552;48.120;-1.456;2023-04-07T11:31:58;14.30;96.50
16871;DHT22;8552;48.120;-1.456;2023-04-07T11:34:31;14.30;97.50
16871;DHT22;8552;48.120;-1.456;2023-04-07T11:36:59;14.30;92.10
16871;DHT22;8552;48.120;-1.456;2023-04-07T11:39:42;14.60;94.70
16871;DHT22;8552;48.120;-1.456;2023-04-07T11:42:10;15.20;94.90
16871;DHT22;8552;48.120;-1.456;2023-04-07T11:44:44;15.40;94.30
16871;DHT22;8552;48.120;-1.456;2023-04-07T11:47:10;14.80;94.20
16871;DHT22;8552;48.120;-1.456;2023-04-07T11:49:43;15.00;96.20
16871;DHT22;8552;48.120;-1.456;2023-04-07T11:52:10;15.20;95.70
16871;DHT22;8552;48.120;-1.456;2023-04-07T11:54:43;14.80;97.10
16871;DHT22;8552;48.120;-1.456;2023-04-07T11:57:12;14.90;96.70
16871;DHT22;8552;48.120;-1.456;2023-04-07T11:59:38;15.20;94.00
16871;DHT22;8552;48.120;-1.456;2023-04-07T12:02:04;15.10;95.60
16871;DHT22;8552;48.120;-1.456;2023-04-07T12:04:32;15.20;95.20
16871;DHT22;8552;48.120;-1.456;2023-04-07T12:07:09;15.10;94.00
16871;DHT22;8552;48.120;-1.456;2023-04-07T12:09:35;15.60;96.80
16871;DHT22;8552;48.120;-1.456;2023-04-07T12:12:06;15.40;93.50
16871;DHT22;8552;48.120;-1.456;2023-04-07T12:14:32;15.60;93.80
16871;DHT22;8552;48.120;-1.456;2023-04-07T12:16:58;14.90;94.20
16871;DHT22;8552;48.120;-1.456;2023-04-07T12:19:28;14.90;94.00
16871;DHT22;8552;48.120;-1.456;2023-04-07T12:21:57;15.40;95.00
16871;DHT22;8552;48.120;-1.456;2023-04-07T12:24:22;15.90;96.20
16871;DHT22;8552;48.120;-1.456;2023-04-07T12:26:53;15.60;92.90
16871;DHT22;8552;48.120;-1.456;2023-04-07T12:29:22;15.80;92.60
16871;DHT22;8552;48.120;-1.456;2023-04-07T12:31:48;16.10;93.00
16871;DHT22;8552;48.120;-1.456;2023-04-07T12:34:14;16.40;91.00
16871;DHT22;8552;48.120;-1.456;2023-04-07T12:36:40;16.20;91.90
16871;DHT22;8552;48.120;-1.456;2023-04-07T12:39:06;16.90;94.30
16871;DHT22;8552;48.120;-1.456;2023-04-07T12:41:33;17.50;94.40
16871;DHT22;8552;48.120;-1.456;2023-04-07T12:44:06;16.70;90.20
16871;DHT22;8552;48.120;-1.456;2023-04-07T12:46:34;16.20;91.20
16871;DHT22;8552;48.120;-1.456;2023-04-07T12:49:03;16.50;93.40
16871;DHT22;8552;48.120;-1.456;2023-04-07T12:51:32;16.30;91.20
16871;DHT22;8552;48.120;-1.456;2023-04-07T12:53:59;16.30;89.20
16871;DHT22;8552;48.120;-1.456;2023-04-07T12:56:25;16.50;90.70
16871;DHT22;8552;48.120;-1.456;2023-04-07T12:58:53;16.80;87.00
16871;DHT22;8552;48.120;-1.456;2023-04-07T13:01:19;17.20;92.30
16871;DHT22;8552;48.120;-1.456;2023-04-07T13:03:45;16.80;88.30
16871;DHT22;8552;48.120;-1.456;2023-04-07T13:06:12;16.80;90.10
16871;DHT22;8552;48.120;-1.456;2023-04-07T13:08:39;16.60;90.00
16871;DHT22;8552;48.120;-1.456;2023-04-07T13:11:05;16.60;84.50
16871;DHT22;8552;48.120;-1.456;2023-04-07T13:13:32;16.50;85.10
16871;DHT22;8552;48.120;-1.456;2023-04-07T13:15:58;16.40;82.60
16871;DHT22;8552;48.120;-1.456;2023-04-07T13:18:24;16.60;86.00
16871;DHT22;8552;48.120;-1.456;2023-04-07T13:20:50;17.10;89.50
16871;DHT22;8552;48.120;-1.456;2023-04-07T13:23:16;17.00;81.00
16871;DHT22;8552;48.120;-1.456;2023-04-07T13:25:41;17.40;87.10
16871;DHT22;8552;48.120;-1.456;2023-04-07T13:28:07;17.10;81.00
16871;DHT22;8552;48.120;-1.456;2023-04-07T13:30:33;17.50;82.70
16871;DHT22;8552;48.120;-1.456;2023-04-07T13:32:59;17.30;86.80
16871;DHT22;8552;48.120;-1.456;2023-04-07T13:35:24;17.10;78.50
16871;DHT22;8552;48.120;-1.456;2023-04-07T13:37:50;17.10;79.00
16871;DHT22;8552;48.120;-1.456;2023-04-07T13:40:16;17.30;79.00
16871;DHT22;8552;48.120;-1.456;2023-04-07T13:42:42;17.80;78.80
16871;DHT22;8552;48.120;-1.456;2023-04-07T13:45:08;17.90;80.40
16871;DHT22;8552;48.120;-1.456;2023-04-07T13:47:34;18.30;79.60
16871;DHT22;8552;48.120;-1.456;2023-04-07T13:50:01;18.20;81.10
16871;DHT22;8552;48.120;-1.456;2023-04-07T13:52:28;17.10;74.40
16871;DHT22;8552;48.120;-1.456;2023-04-07T13:54:54;17.10;76.10
16871;DHT22;8552;48.120;-1.456;2023-04-07T13:57:20;16.50;73.90
16871;DHT22;8552;48.120;-1.456;2023-04-07T13:59:48;16.80;76.80
16871;DHT22;8552;48.120;-1.456;2023-04-07T14:02:17;16.50;72.70
16871;DHT22;8552;48.120;-1.456;2023-04-07T14:04:42;16.80;74.90
16871;DHT22;8552;48.120;-1.456;2023-04-07T14:07:08;16.50;75.50
16871;DHT22;8552;48.120;-1.456;2023-04-07T14:09:34;17.10;74.40
16871;DHT22;8552;48.120;-1.456;2023-04-07T14:12:00;17.80;79.30
16871;DHT22;8552;48.120;-1.456;2023-04-07T14:14:25;17.90;79.00
16871;DHT22;8552;48.120;-1.456;2023-04-07T14:16:51;18.20;75.80
16871;DHT22;8552;48.120;-1.456;2023-04-07T14:19:21;18.00;77.20
16871;DHT22;8552;48.120;-1.456;2023-04-07T14:21:48;17.90;78.10
16871;DHT22;8552;48.120;-1.456;2023-04-07T14:24:14;17.30;73.10
16871;DHT22;8552;48.120;-1.456;2023-04-07T14:26:42;17.20;74.40
16871;DHT22;8552;48.120;-1.456;2023-04-07T14:29:09;17.40;73.70
16871;DHT22;8552;48.120;-1.456;2023-04-07T14:31:36;17.90;73.30
16871;DHT22;8552;48.120;-1.456;2023-04-07T14:34:03;18.30;80.60
16871;DHT22;8552;48.120;-1.456;2023-04-07T14:36:30;18.30;75.30
16871;DHT22;8552;48.120;-1.456;2023-04-07T14:38:56;17.40;71.30
16871;DHT22;8552;48.120;-1.456;2023-04-07T14:41:23;17.00;73.80
16871;DHT22;8552;48.120;-1.456;2023-04-07T14:43:49;16.60;72.70
16871;DHT22;8552;48.120;-1.456;2023-04-07T14:46:21;16.50;75.20
16871;DHT22;8552;48.120;-1.456;2023-04-07T14:48:46;16.80;77.20
16871;DHT22;8552;48.120;-1.456;2023-04-07T14:51:12;16.90;75.10
16871;DHT22;8552;48.120;-1.456;2023-04-07T14:53:39;17.30;80.60
16871;DHT22;8552;48.120;-1.456;2023-04-07T14:56:06;17.70;75.30
16871;DHT22;8552;48.120;-1.456;2023-04-07T14:58:32;18.10;79.30
16871;DHT22;8552;48.120;-1.456;2023-04-07T15:00:58;17.30;73.30
16871;DHT22;8552;48.120;-1.456;2023-04-07T15:03:23;17.50;75.30
16871;DHT22;8552;48.120;-1.456;2023-04-07T15:05:49;17.10;73.50
16871;DHT22;8552;48.120;-1.456;2023-04-07T15:08:15;17.20;73.90
16871;DHT22;8552;48.120;-1.456;2023-04-07T15:10:41;17.00;75.00
16871;DHT22;8552;48.120;-1.456;2023-04-07T15:13:06;16.90;72.40
16871;DHT22;8552;48.120;-1.456;2023-04-07T15:15:32;17.20;77.50
16871;DHT22;8552;48.120;-1.456;2023-04-07T15:17:58;17.50;76.70
16871;DHT22;8552;48.120;-1.456;2023-04-07T15:20:23;17.40;69.90
16871;DHT22;8552;48.120;-1.456;2023-04-07T15:22:49;17.00;71.10
16871;DHT22;8552;48.120;-1.456;2023-04-07T15:25:15;17.20;74.60
16871;DHT22;8552;48.120;-1.456;2023-04-07T15:27:41;17.10;73.20
16871;DHT22;8552;48.120;-1.456;2023-04-07T15:30:07;17.10;74.40
16871;DHT22;8552;48.120;-1.456;2023-04-07T15:32:34;17.40;75.30
16871;DHT22;8552;48.120;-1.456;2023-04-07T15:35:00;17.70;74.70
16871;DHT22;8552;48.120;-1.456;2023-04-07T15:37:25;17.10;74.80
16871;DHT22;8552;48.120;-1.456;2023-04-07T15:39:51;16.70;77.10
16871;DHT22;8552;48.120;-1.456;2023-04-07T15:42:17;16.40;75.20
16871;DHT22;8552;48.120;-1.456;2023-04-07T15:44:43;16.30;75.70
16871;DHT22;8552;48.120;-1.456;2023-04-07T15:47:08;16.50;77.00
16871;DHT22;8552;48.120;-1.456;2023-04-07T15:49:34;16.10;74.50
16871;DHT22;8552;48.120;-1.456;2023-04-07T15:52:04;16.00;73.50
16871;DHT22;8552;48.120;-1.456;2023-04-07T15:54:30;16.30;75.10
16871;DHT22;8552;48.120;-1.456;2023-04-07T15:56:56;16.70;72.30
16871;DHT22;8552;48.120;-1.456;2023-04-07T15:59:21;16.60;73.80
16871;DHT22;8552;48.120;-1.456;2023-04-07T16:01:47;16.80;74.10